Time;durP1;ratioP1;P1;durP2;ratioP2;P2;SDS_P1;SDS_P2;PMS_P1;PMS_P2;Temp;Humidity;BMP_temperature;BMP_pressure;BME280_temperature;BME280_humidity;BME280_pressure;Samples;Min_cycle;Max_cycle;Signal;HPM_P1;HPM_P2
2022/05/22 00:01:20;;;;;;;3.07;1.80;;;;;;;12.50;100.00;96600.41;5071203;28;20984;-78
2022/05/22 00:03:46;;;;;;;4.23;2.60;;;;;;;11.95;100.00;96553.94;5071408;28;20441;-78
2022/05/22 00:06:13;;;;;;;2.00;1.60;;;;;;;12.12;100.00;96588.19;5071656;28;20997;-79
2022/05/22 00:08:39;;;;;;;5.70;2.37;;;;;;;12.26;100.00;96595.84;5055819;28;20472;-78
2022/05/22 00:11:06;;;;;;;2.70;2.10;;;;;;;12.03;100.00;96566.34;5068365;28;20488;-78
2022/05/22 00:13:33;;;;;;;3.17;2.10;;;;;;;11.87;100.00;96568.06;5087961;28;20578;-78
2022/05/22 00:18:45;;;;;;;3.43;2.40;;;;;;;12.12;100.00;96577.59;5072375;28;20467;-78
2022/05/22 00:21:12;;;;;;;3.57;2.63;;;;;;;11.96;100.00;96534.28;5071155;28;20457;-78
2022/05/22 00:23:38;;;;;;;3.27;2.50;;;;;;;11.87;100.00;96542.34;5071088;28;20474;-78
2022/05/22 00:26:05;;;;;;;5.33;1.80;;;;;;;11.48;100.00;96533.03;5070856;28;20432;-78
2022/05/22 00:28:32;;;;;;;2.87;2.60;;;;;;;11.20;100.00;96583.13;5070505;28;20547;-78
2022/05/22 00:30:58;;;;;;;5.17;3.17;;;;;;;11.30;100.00;96534.31;5070635;28;20482;-78
2022/05/22 00:33:27;;;;;;;2.93;2.17;;;;;;;11.29;100.00;96538.84;5070719;28;20568;-78
2022/05/22 00:35:54;;;;;;;2.60;2.40;;;;;;;11.35;100.00;96542.84;5050875;28;20434;-78
2022/05/22 00:38:21;;;;;;;3.43;2.30;;;;;;;11.47;100.00;96542.09;5082469;28;20485;-78
2022/05/22 00:40:48;;;;;;;3.17;2.33;;;;;;;11.50;100.00;96517.63;5070712;28;20454;-78
2022/05/22 00:43:33;;;;;;;2.33;2.13;;;;;;;11.62;100.00;96546.00;5070491;28;20437;-78
2022/05/22 00:46:01;;;;;;;3.73;2.77;;;;;;;11.53;100.00;96572.56;5070568;28;21011;-78
2022/05/22 00:48:28;;;;;;;4.40;2.27;;;;;;;10.83;100.00;96522.09;5070501;28;20445;-78
2022/05/22 00:51:00;;;;;;;4.70;2.30;;;;;;;11.17;100.00;96578.47;5087229;28;20433;-78
2022/05/22 00:53:35;;;;;;;4.03;3.20;;;;;;;11.23;100.00;96569.25;5071955;28;20520;-78
2022/05/22 00:56:06;;;;;;;3.07;2.53;;;;;;;11.35;100.00;96579.09;5087345;28;20429;-78
2022/05/22 00:58:33;;;;;;;4.50;3.00;;;;;;;11.48;100.00;96580.69;5057129;28;20537;-78
2022/05/22 01:01:01;;;;;;;6.17;3.03;;;;;;;10.99;100.00;96509.06;5064622;28;21004;-78
2022/05/22 01:03:31;;;;;;;4.40;3.07;;;;;;;11.32;100.00;96554.06;5072221;28;20471;-78
2022/05/22 01:06:06;;;;;;;2.53;2.37;;;;;;;11.50;100.00;96578.53;5070345;28;20462;-78
2022/05/22 01:08:35;;;;;;;3.10;2.80;;;;;;;11.50;100.00;96533.50;5075123;28;20413;-78
2022/05/22 01:11:07;;;;;;;6.63;3.20;;;;;;;11.48;100.00;96575.41;5070102;28;20436;-78
2022/05/22 01:13:42;;;;;;;5.60;3.30;;;;;;;11.28;100.00;96533.88;5070372;28;20483;-78
2022/05/22 01:16:09;;;;;;;6.03;2.93;;;;;;;11.23;100.00;96537.50;5071026;28;20515;-78
2022/05/22 01:18:45;;;;;;;4.40;2.50;;;;;;;11.60;100.00;96594.00;5070069;28;20480;-78
2022/05/22 01:21:16;;;;;;;3.03;2.60;;;;;;;11.18;100.00;96541.09;5070992;28;20539;-78
2022/05/22 01:23:43;;;;;;;4.80;2.60;;;;;;;10.98;100.00;96535.84;5085335;28;20470;-78
2022/05/22 01:26:20;;;;;;;2.63;2.43;;;;;;;11.01;100.00;96554.47;5070145;28;20513;-78
2022/05/22 01:28:59;;;;;;;3.50;2.70;;;;;;;11.07;100.00;96582.28;5071014;28;20436;-78
2022/05/22 01:31:26;;;;;;;6.17;3.10;;;;;;;11.11;100.00;96585.84;5069966;28;20483;-78
2022/05/22 01:33:53;;;;;;;3.33;2.97;;;;;;;10.87;100.00;96565.31;5086534;28;20499;-78
2022/05/22 01:36:20;;;;;;;2.90;2.70;;;;;;;11.12;100.00;96595.34;5070090;28;20991;-78
2022/05/22 01:38:52;;;;;;;4.33;3.50;;;;;;;11.02;100.00;96569.25;5070732;28;20425;-78
2022/05/22 01:41:21;;;;;;;5.17;2.93;;;;;;;11.14;100.00;96550.78;5087314;28;20471;-78
2022/05/22 01:43:48;;;;;;;4.87;2.80;;;;;;;11.12;100.00;96565.44;5057824;28;20460;-78
2022/05/22 01:46:18;;;;;;;4.10;3.30;;;;;;;11.35;100.00;96594.97;5057617;28;20470;-78
2022/05/22 01:49:05;;;;;;;3.83;3.00;;;;;;;11.34;100.00;96594.22;5063206;28;20448;-78
2022/05/22 01:51:38;;;;;;;4.90;2.90;;;;;;;11.12;100.00;96589.25;5073575;28;20472;-78
2022/05/22 01:54:05;;;;;;;2.63;2.30;;;;;;;10.51;100.00;96578.28;5073756;28;20488;-78
2022/05/22 01:56:34;;;;;;;3.20;3.00;;;;;;;10.26;100.00;96587.88;5077662;28;20504;-78
2022/05/22 01:59:03;;;;;;;3.27;2.97;;;;;;;10.56;100.00;96591.31;5082617;28;20436;-78
2022/05/22 02:01:46;;;;;;;3.57;3.27;;;;;;;10.57;100.00;96559.28;5066559;28;20467;-78
2022/05/22 02:04:13;;;;;;;3.50;2.87;;;;;;;10.65;100.00;96555.78;5073518;28;20472;-78
2022/05/22 02:08:19;;;;;;;3.43;3.23;;;;;;;10.69;100.00;96560.47;5073781;28;20467;-78
2022/05/22 02:09:30;;;;;;;5.50;3.30;;;;;;;10.52;100.00;96553.38;5071357;28;20971;-78
2022/05/22 02:11:56;;;;;;;4.20;3.80;;;;;;;10.67;100.00;96573.97;5073364;28;20460;-78
2022/05/22 02:14:23;;;;;;;5.20;3.63;;;;;;;10.58;100.00;96579.34;5056751;28;20468;-78
2022/05/22 02:17:00;;;;;;;3.27;3.00;;;;;;;10.29;100.00;96547.63;5058143;28;20432;-78
2022/05/22 02:19:26;;;;;;;5.10;3.50;;;;;;;10.59;100.00;96575.59;5090097;28;20443;-78
2022/05/22 02:21:53;;;;;;;4.27;3.60;;;;;;;10.61;100.00;96548.81;5073414;28;20567;-78
2022/05/22 02:24:24;;;;;;;3.67;3.00;;;;;;;10.86;100.00;96590.22;5066604;28;20461;-79
2022/05/22 02:27:06;;;;;;;3.60;3.30;;;;;;;11.05;100.00;96592.41;5073651;28;20468;-78
2022/05/22 02:29:34;;;;;;;3.10;2.80;;;;;;;10.92;100.00;96583.63;5054504;28;20808;-78
2022/05/22 02:32:01;;;;;;;2.97;2.73;;;;;;;10.84;100.00;96581.06;5057593;28;20456;-79
2022/05/22 02:34:28;;;;;;;3.33;2.87;;;;;;;10.68;100.00;96550.94;5074336;28;20472;-78
2022/05/22 02:36:55;;;;;;;4.23;3.43;;;;;;;10.79;100.00;96579.34;5073826;28;20443;-78
2022/05/22 02:39:22;;;;;;;3.90;3.53;;;;;;;10.78;100.00;96574.38;5084079;28;20439;-78
2022/05/22 02:41:49;;;;;;;4.43;4.13;;;;;;;10.31;100.00;96537.50;5077528;28;20527;-78
2022/05/22 02:44:16;;;;;;;3.90;3.60;;;;;;;10.65;100.00;96574.31;5074464;28;20431;-79
2022/05/22 02:46:43;;;;;;;3.17;2.87;;;;;;;10.76;100.00;96576.59;5074500;28;20515;-79
2022/05/22 02:49:10;;;;;;;4.50;3.07;;;;;;;10.60;100.00;96520.84;5091260;28;20447;-79
2022/05/22 02:51:38;;;;;;;5.50;3.13;;;;;;;10.55;100.00;96527.09;5074264;28;20467;-79
2022/05/22 02:54:05;;;;;;;4.90;3.37;;;;;;;10.94;100.00;96564.78;5073937;28;20544;-78
2022/05/22 02:56:45;;;;;;;4.70;3.63;;;;;;;11.11;100.00;96559.38;5074575;28;20437;-78
2022/05/22 02:59:34;;;;;;;5.20;3.13;;;;;;;10.90;100.00;96558.59;5088855;28;20977;-79
2022/05/22 03:02:18;;;;;;;3.80;3.30;;;;;;;10.41;100.00;96526.53;5073692;28;20557;-79
2022/05/22 03:04:47;;;;;;;3.80;3.50;;;;;;;10.75;100.00;96567.09;5072440;28;20498;-79
2022/05/22 03:07:16;;;;;;;3.60;3.30;;;;;;;10.74;100.00;96558.41;5075998;28;20469;-78
2022/05/22 03:09:47;;;;;;;3.73;3.40;;;;;;;10.33;100.00;96509.66;5056884;28;20436;-78
2022/05/22 03:12:20;;;;;;;4.33;3.37;;;;;;;10.82;100.00;96554.16;5072355;28;20920;-79
2022/05/22 03:14:54;;;;;;;4.63;4.23;;;;;;;10.68;100.00;96512.06;5076996;28;20829;-79
2022/05/22 03:17:22;;;;;;;4.53;4.03;;;;;;;10.47;100.00;96503.34;5072753;28;20821;-79
2022/05/22 03:19:53;;;;;;;4.53;4.13;;;;;;;10.80;100.00;96546.50;5081595;28;20451;-79
2022/05/22 03:22:20;;;;;;;4.50;4.07;;;;;;;10.45;100.00;96493.09;5076355;28;20484;-79
2022/05/22 03:24:48;;;;;;;5.40;4.50;;;;;;;10.68;100.00;96521.88;5073794;28;20506;-78
2022/05/22 03:27:17;;;;;;;4.77;4.20;;;;;;;10.70;100.00;96530.28;5088760;28;20835;-79
2022/05/22 03:29:46;;;;;;;7.07;5.60;;;;;;;10.69;100.00;96528.72;5084350;28;20445;-79
2022/05/22 03:32:13;;;;;;;6.30;4.47;;;;;;;11.04;100.00;96550.41;5090260;28;20563;-79
2022/05/22 03:34:41;;;;;;;7.87;5.20;;;;;;;10.64;100.00;96496.06;5074733;28;20459;-79
2022/05/22 03:37:08;;;;;;;5.67;5.13;;;;;;;10.88;100.00;96540.41;5074114;28;20879;-78
2022/05/22 03:39:35;;;;;;;6.33;4.67;;;;;;;10.71;100.00;96521.25;5071751;28;20467;-79
2022/05/22 03:42:04;;;;;;;7.67;6.13;;;;;;;10.69;100.00;96520.78;5071925;28;20835;-79
2022/05/22 03:44:34;;;;;;;6.07;5.47;;;;;;;10.82;100.00;96551.50;5071759;28;20441;-79
2022/05/22 03:47:01;;;;;;;6.93;5.20;;;;;;;10.41;100.00;96486.13;5071828;28;20444;-78
2022/05/22 03:49:37;;;;;;;6.23;5.07;;;;;;;10.56;100.00;96525.22;5088663;28;20451;-79
2022/05/22 03:52:04;;;;;;;6.70;4.33;;;;;;;10.32;100.00;96475.63;5071514;28;20511;-79
2022/05/22 03:54:31;;;;;;;5.40;4.90;;;;;;;10.70;100.00;96536.34;5052776;28;20546;-78
2022/05/22 03:57:00;;;;;;;4.43;3.97;;;;;;;10.54;100.00;96509.66;5071805;28;20478;-78
2022/05/22 03:59:33;;;;;;;6.77;4.23;;;;;;;10.44;100.00;96499.47;5088312;28;20437;-78
2022/05/22 04:02:02;;;;;;;4.93;4.13;;;;;;;10.74;100.00;96528.53;5071399;28;20497;-78
2022/05/22 04:04:30;;;;;;;5.40;4.23;;;;;;;10.80;100.00;96529.88;5070533;28;20487;-79
2022/05/22 04:07:00;;;;;;;5.27;4.77;;;;;;;10.34;100.00;96486.63;5072916;28;20466;-78
2022/05/22 04:09:28;;;;;;;9.07;5.47;;;;;;;10.83;100.00;96530.03;5074028;28;20448;-78
2022/05/22 04:12:13;;;;;;;4.90;4.00;;;;;;;10.47;100.00;96498.84;5051258;28;20476;-78
2022/05/22 04:14:42;;;;;;;9.13;4.10;;;;;;;10.35;100.00;96490.81;5058312;28;20479;-78
2022/05/22 04:17:10;;;;;;;5.33;4.40;;;;;;;10.49;100.00;96501.94;5071028;28;20812;-78
2022/05/22 04:19:38;;;;;;;4.07;3.70;;;;;;;10.55;100.00;96491.94;5071645;28;20420;-78
2022/05/22 04:22:07;;;;;;;7.60;3.47;;;;;;;10.46;100.00;96484.06;5069215;28;20813;-79
2022/05/22 04:27:23;;;;;;;4.40;3.50;;;;;;;10.68;100.00;96492.78;5071076;28;20445;-78
2022/05/22 04:29:50;;;;;;;10.50;4.03;;;;;;;10.70;100.00;96482.69;5051066;28;20437;-78
2022/05/22 04:32:21;;;;;;;4.53;4.13;;;;;;;10.87;100.00;96453.44;5069678;28;20459;-78
2022/05/22 04:34:50;;;;;;;4.30;4.00;;;;;;;10.96;100.00;96456.78;5087955;28;20469;-78
2022/05/22 04:37:17;;;;;;;4.97;4.50;;;;;;;11.07;100.00;96459.78;5054279;28;20448;-79
2022/05/22 04:39:46;;;;;;;5.53;4.30;;;;;;;11.51;100.00;96496.13;5071177;28;20820;-78
2022/05/22 04:42:13;;;;;;;4.63;4.27;;;;;;;11.61;100.00;96508.16;5070543;28;20464;-79
2022/05/22 04:44:41;;;;;;;4.70;4.30;;;;;;;11.53;100.00;96507.16;5084570;28;20442;-78
2022/05/22 04:47:35;;;;;;;4.80;4.30;;;;;;;11.68;100.00;96516.34;5072554;28;20515;-78
2022/05/22 04:50:17;;;;;;;5.90;4.67;;;;;;;11.10;100.00;96419.47;5070681;28;20440;-78
2022/05/22 04:53:21;;;;;;;5.60;5.20;;;;;;;11.35;100.00;96504.97;5058519;28;20528;-78
2022/05/22 04:56:07;;;;;;;5.93;5.33;;;;;;;11.52;100.00;96512.78;5070578;28;20538;-79
2022/05/22 04:58:50;;;;;;;5.90;5.40;;;;;;;11.72;100.00;96516.44;5070407;28;20928;-78
2022/05/22 05:01:18;;;;;;;6.17;5.57;;;;;;;11.79;100.00;96496.31;5053999;28;20821;-79
2022/05/22 05:04:17;;;;;;;6.10;4.70;;;;;;;11.84;100.00;96514.63;5058910;28;20432;-78
2022/05/22 05:07:06;;;;;;;4.57;4.27;;;;;;;11.81;100.00;96498.63;5072880;28;20948;-79
2022/05/22 05:09:58;;;;;;;5.47;4.97;;;;;;;11.24;100.00;96449.06;5043419;28;20439;-78
2022/05/22 05:12:51;;;;;;;5.20;4.70;;;;;;;12.10;100.00;96527.56;5055441;28;20541;-79
2022/05/22 05:15:24;;;;;;;5.90;5.40;;;;;;;12.34;100.00;96518.84;5055005;28;20455;-78
2022/05/22 05:17:59;;;;;;;5.03;4.57;;;;;;;12.48;100.00;96533.66;5070332;28;20523;-79
2022/05/22 05:20:28;;;;;;;4.90;4.50;;;;;;;12.45;100.00;96529.78;5070597;28;20475;-78
2022/05/22 05:23:05;;;;;;;4.77;4.37;;;;;;;12.63;100.00;96501.13;5054398;28;20488;-78
2022/05/22 05:25:41;;;;;;;5.27;4.73;;;;;;;13.00;100.00;96515.09;5055529;28;20442;-79
2022/05/22 05:28:08;;;;;;;6.97;5.37;;;;;;;13.00;100.00;96505.25;5053809;28;20959;-78
2022/05/22 05:30:36;;;;;;;5.03;4.37;;;;;;;13.49;100.00;96525.56;5070645;28;20436;-79
2022/05/22 05:33:03;;;;;;;5.23;4.73;;;;;;;13.99;100.00;96521.50;5071913;28;20475;-79
2022/05/22 05:35:49;;;;;;;4.03;3.73;;;;;;;14.14;100.00;96526.81;5061345;28;20404;-78
2022/05/22 05:38:32;;;;;;;5.27;4.90;;;;;;;13.67;100.00;96518.81;5055808;28;20459;-79
2022/05/22 05:41:32;;;;;;;4.00;3.70;;;;;;;13.45;100.00;96522.78;5060263;28;20467;-78
2022/05/22 05:44:01;;;;;;;4.47;4.00;;;;;;;13.46;100.00;96524.34;5072495;28;20521;-78
2022/05/22 05:46:29;;;;;;;4.33;3.93;;;;;;;13.55;100.00;96514.34;5072009;28;20433;-78
2022/05/22 05:48:59;;;;;;;6.00;4.17;;;;;;;13.36;100.00;96540.00;5056690;28;20475;-79
2022/05/22 05:51:26;;;;;;;5.43;3.90;;;;;;;13.36;100.00;96508.13;5088258;28;20457;-79
2022/05/22 05:53:56;;;;;;;3.97;3.63;;;;;;;13.59;100.00;96535.69;5072708;28;20471;-79
2022/05/22 05:56:43;;;;;;;4.47;4.07;;;;;;;13.00;100.00;96509.78;5072503;28;20448;-79
2022/05/22 05:59:27;;;;;;;6.70;4.30;;;;;;;13.26;100.00;96531.41;5072158;28;20437;-79
2022/05/22 06:02:03;;;;;;;7.27;4.40;;;;;;;13.29;100.00;96535.25;5066321;28;20460;-78
2022/05/22 06:04:30;;;;;;;6.80;5.73;;;;;;;13.40;100.00;96523.03;5075064;28;20814;-78
2022/05/22 06:06:56;;;;;;;5.70;4.60;;;;;;;13.25;100.00;96524.56;5082261;28;20436;-78
2022/05/22 06:09:25;;;;;;;8.97;6.40;;;;;;;13.20;100.00;96502.75;5074375;28;20444;-79
2022/05/22 06:11:54;;;;;;;6.13;5.53;;;;;;;13.06;100.00;96489.84;5072830;28;20471;-78
2022/05/22 06:14:25;;;;;;;7.40;4.70;;;;;;;13.57;100.00;96524.63;5071012;28;20471;-78
2022/05/22 06:16:52;;;;;;;7.90;5.63;;;;;;;13.58;100.00;96500.38;5083701;28;20442;-79
2022/05/22 06:19:53;;;;;;;6.20;4.73;;;;;;;13.80;100.00;96528.25;5052748;28;20441;-78
2022/05/22 06:22:09;;;;;;;10.53;5.93;;;;;;;14.17;100.00;96520.81;5097213;28;20563;-79
2022/05/22 06:24:37;;;;;;;6.57;4.50;;;;;;;14.06;100.00;96503.06;5070480;28;20439;-78
2022/05/22 06:27:19;;;;;;;4.17;3.77;;;;;;;14.16;100.00;96519.28;5085919;28;20436;-78
2022/05/22 06:29:54;;;;;;;7.43;3.97;;;;;;;13.96;100.00;96538.13;5073981;28;20824;-78
2022/05/22 06:32:47;;;;;;;4.63;4.13;;;;;;;13.72;100.00;96499.94;5073441;28;20466;-78
2022/05/22 06:35:19;;;;;;;4.60;4.00;;;;;;;14.58;100.00;96537.34;5057311;28;20805;-78
2022/05/22 06:38:01;;;;;;;5.07;3.80;;;;;;;14.52;100.00;96524.66;5073209;28;20436;-78
2022/05/22 06:40:56;;;;;;;6.13;4.70;;;;;;;14.46;100.00;96521.50;5078608;28;20488;-78
2022/05/22 06:43:42;;;;;;;5.73;4.03;;;;;;;14.12;100.00;96451.16;5073175;28;20807;-78
2022/05/22 06:46:33;;;;;;;4.50;3.03;;;;;;;14.85;100.00;96519.69;5073234;28;20447;-78
2022/05/22 06:49:23;;;;;;;4.17;3.27;;;;;;;14.34;100.00;96479.00;5073847;28;20428;-78
2022/05/22 06:52:22;;;;;;;3.93;3.37;;;;;;;14.63;100.00;96459.13;5060659;28;20898;-77
2022/05/22 06:54:58;;;;;;;3.80;3.13;;;;;;;15.32;100.00;96498.16;5073508;28;20535;-78
2022/05/22 06:58:03;;;;;;;2.30;2.10;;;;;;;15.15;100.00;96481.84;5036222;28;20450;-79
2022/05/22 07:00:55;;;;;;;4.73;3.23;;;;;;;15.09;100.00;96500.03;5065001;28;20448;-78
2022/05/22 07:03:35;;;;;;;3.90;2.63;;;;;;;15.69;100.00;96483.63;5074470;28;20439;-79
2022/05/22 07:06:34;;;;;;;3.50;2.97;;;;;;;16.44;100.00;96510.34;5076527;28;20455;-77
2022/05/22 07:09:28;;;;;;;5.80;3.07;;;;;;;16.39;99.92;96517.88;5074226;28;20432;-76
2022/05/22 07:11:59;;;;;;;3.13;2.33;;;;;;;16.05;100.00;96479.66;5081648;28;20474;-77
2022/05/22 07:14:43;;;;;;;10.30;3.40;;;;;;;16.79;95.03;96506.66;5065804;28;21020;-77
2022/05/22 07:17:27;;;;;;;4.10;2.40;;;;;;;16.96;94.58;96479.41;5079033;28;20433;-77
2022/05/22 07:20:02;;;;;;;4.07;2.83;;;;;;;17.67;92.09;96511.50;5067005;28;20478;-77
2022/05/22 07:22:55;;;;;;;3.97;2.87;;;;;;;17.40;88.23;96495.56;5064581;28;20448;-77
2022/05/22 07:25:42;;;;;;;5.10;2.67;;;;;;;17.59;84.91;96485.81;5079350;28;20435;-77
2022/05/22 07:28:14;;;;;;;8.43;2.90;;;;;;;17.08;84.65;96484.50;5076473;28;20438;-77
2022/05/22 07:30:59;;;;;;;2.93;2.47;;;;;;;17.02;84.64;96502.00;5085823;28;20543;-77
2022/05/22 07:33:44;;;;;;;3.60;2.13;;;;;;;17.51;86.17;96481.53;5076246;28;20441;-77
2022/05/22 07:36:29;;;;;;;3.23;2.27;;;;;;;18.28;83.65;96494.81;5092574;28;20503;-77
2022/05/22 07:38:59;;;;;;;2.03;1.93;;;;;;;18.34;83.29;96457.00;5087507;28;20843;-77
2022/05/22 07:41:59;;;;;;;9.43;3.90;;;;;;;18.26;80.75;96440.13;5071438;28;20525;-77
2022/05/22 07:44:26;;;;;;;3.87;2.23;;;;;;;18.18;78.46;96479.47;5072033;28;20486;-77
2022/05/22 07:47:01;;;;;;;2.83;2.63;;;;;;;17.86;78.50;96457.81;5071850;28;20443;-77
2022/05/22 07:52:52;;;;;;;2.40;2.20;;;;;;;18.81;75.63;96432.03;5071909;28;20496;-77
2022/05/22 07:55:31;;;;;;;4.53;2.70;;;;;;;18.90;72.31;96443.94;5087277;28;20539;-77
2022/05/22 07:58:18;;;;;;;2.90;2.33;;;;;;;19.19;72.76;96479.63;5075296;28;20594;-76
2022/05/22 08:00:50;;;;;;;4.23;2.10;;;;;;;19.29;70.12;96486.19;5086853;28;20792;-76
2022/05/22 08:03:40;;;;;;;2.90;1.90;;;;;;;18.94;69.19;96464.59;5058309;28;20543;-76
2022/05/22 08:06:11;;;;;;;3.30;1.83;;;;;;;19.01;70.61;96464.66;5071089;28;20842;-77
2022/05/22 08:08:38;;;;;;;2.80;2.00;;;;;;;19.17;70.71;96438.28;5075189;28;20570;-76
2022/05/22 08:11:29;;;;;;;3.00;1.83;;;;;;;19.54;70.14;96480.88;5051806;28;20564;-76
2022/05/22 08:14:09;;;;;;;6.03;2.20;;;;;;;19.58;68.83;96480.91;5069476;28;20468;-76
2022/05/22 08:16:40;;;;;;;2.70;1.90;;;;;;;18.53;66.82;96467.44;5061155;28;20483;-76
2022/05/22 08:19:13;;;;;;;6.03;2.50;;;;;;;18.21;70.50;96438.56;5071057;28;20476;-76
2022/05/22 08:22:09;;;;;;;4.67;1.90;;;;;;;18.05;69.32;96402.53;5058358;28;20468;-76
2022/05/22 08:24:55;;;;;;;2.77;2.10;;;;;;;17.38;69.97;96440.94;5071351;28;20440;-76
2022/05/22 08:27:25;;;;;;;2.40;2.03;;;;;;;18.10;72.29;96434.28;5075807;28;20435;-76
2022/05/22 08:29:51;;;;;;;4.20;2.30;;;;;;;18.83;67.45;96446.59;5074427;28;20428;-76
2022/05/22 08:32:22;;;;;;;3.63;1.73;;;;;;;19.02;65.00;96475.00;5056165;28;21038;-76
2022/05/22 08:34:51;;;;;;;3.40;2.00;;;;;;;18.39;67.63;96429.88;5050862;28;20920;-76
2022/05/22 08:37:17;;;;;;;3.83;2.27;;;;;;;19.12;65.34;96468.91;5083996;28;20481;-76
2022/05/22 08:39:44;;;;;;;2.80;1.93;;;;;;;19.57;67.16;96455.25;5070820;28;20429;-76
2022/05/22 08:42:18;;;;;;;5.10;2.10;;;;;;;18.33;69.00;96456.25;5071185;28;20938;-76
2022/05/22 08:44:50;;;;;;;3.90;2.20;;;;;;;17.73;70.48;96416.44;5054652;28;20432;-76
2022/05/22 08:47:37;;;;;;;2.50;2.30;;;;;;;17.46;71.91;96420.38;5079024;28;20470;-76
2022/05/22 08:50:08;;;;;;;2.40;1.93;;;;;;;17.94;70.10;96423.88;5060204;28;20496;-76
2022/05/22 08:52:43;;;;;;;3.30;2.47;;;;;;;17.58;72.53;96447.59;5062425;28;20495;-76
2022/05/22 08:55:25;;;;;;;2.97;2.03;;;;;;;17.24;73.48;96444.22;5070828;28;20447;-76
2022/05/22 09:00:55;;;;;;;2.53;2.33;;;;;;;18.57;68.43;96428.09;5092167;28;20443;-76
2022/05/22 09:03:25;;;;;;;2.33;1.87;;;;;;;18.54;68.38;96447.56;5086828;28;20431;-76
2022/05/22 09:05:59;;;;;;;2.53;1.90;;;;;;;18.48;67.54;96449.06;5087766;28;20466;-76
2022/05/22 09:08:32;;;;;;;3.23;1.77;;;;;;;18.23;66.75;96441.66;5089046;28;20423;-76
2022/05/22 09:11:08;;;;;;;7.90;1.97;;;;;;;18.18;67.81;96427.84;5085480;28;20451;-76
2022/05/22 09:13:52;;;;;;;4.30;2.80;;;;;;;18.90;68.55;96437.81;5081100;28;20436;-76
2022/05/22 09:16:30;;;;;;;2.93;2.20;;;;;;;19.01;65.08;96452.00;5068961;28;20444;-76
2022/05/22 09:19:11;;;;;;;4.77;2.13;;;;;;;19.01;64.46;96451.25;5082340;28;20428;-75
2022/05/22 09:22:23;;;;;;;2.90;2.37;;;;;;;19.35;65.77;96455.16;5090579;28;20567;-76
2022/05/22 09:24:58;;;;;;;3.60;1.73;;;;;;;20.17;63.42;96449.91;5062654;28;20431;-76
2022/05/22 09:27:50;;;;;;;8.77;2.47;;;;;;;20.67;61.56;96455.94;5067817;28;20554;-76
2022/05/22 09:30:33;;;;;;;5.30;1.87;;;;;;;19.55;61.84;96441.44;5076514;28;20438;-76
2022/05/22 09:33:46;;;;;;;1.87;1.77;;;;;;;18.54;65.71;96439.53;5078895;28;20486;-75
2022/05/22 09:36:51;;;;;;;4.27;2.10;;;;;;;18.03;69.66;96437.69;4983922;28;20558;-77
2022/05/22 09:39:32;;;;;;;2.43;2.00;;;;;;;17.62;68.27;96435.03;5083805;28;20428;-76
2022/05/22 09:42:16;;;;;;;5.23;1.80;;;;;;;17.43;69.00;96397.81;5076169;28;20516;-77
2022/05/22 09:44:45;;;;;;;4.80;2.20;;;;;;;17.31;69.81;96430.94;5075493;28;20480;-77
2022/05/22 09:47:34;;;;;;;4.00;2.53;;;;;;;17.41;69.64;96424.91;5050084;28;20434;-76
2022/05/22 09:50:28;;;;;;;3.30;2.47;;;;;;;18.23;70.96;96424.81;5085359;28;21006;-76
2022/05/22 09:53:14;;;;;;;5.93;2.10;;;;;;;18.85;68.44;96422.09;5084940;28;20566;-77
2022/05/22 09:55:50;;;;;;;3.57;2.40;;;;;;;18.57;64.95;96426.16;5069937;28;20476;-77
2022/05/22 09:58:56;;;;;;;5.33;2.63;;;;;;;19.04;65.55;96418.31;5059609;28;20439;-77
2022/05/22 10:01:36;;;;;;;3.10;2.10;;;;;;;18.39;63.09;96416.50;5019819;28;20508;-76
2022/05/22 10:04:34;;;;;;;3.13;2.87;;;;;;;18.03;64.99;96416.28;5016464;28;20539;-76
2022/05/22 10:07:28;;;;;;;12.50;2.13;;;;;;;17.39;69.37;96322.19;5069397;28;20923;-77
2022/05/22 10:10:06;;;;;;;3.10;1.93;;;;;;;17.50;66.79;96357.78;5053348;28;20851;-77
2022/05/22 10:12:46;;;;;;;2.57;1.80;;;;;;;18.28;66.35;96403.03;5084027;28;20469;-76
2022/05/22 10:15:19;;;;;;;4.33;2.50;;;;;;;19.44;63.89;96407.31;5076898;28;20618;-79
2022/05/22 10:18:08;;;;;;;2.70;2.30;;;;;;;19.57;62.37;96386.25;5078772;28;20458;-79
2022/05/22 10:21:01;;;;;;;5.37;2.10;;;;;;;19.64;62.04;96402.38;5078220;28;20424;-79
2022/05/22 10:23:55;;;;;;;6.23;4.07;;;;;;;20.39;61.76;96396.91;5095043;28;20436;-79
2022/05/22 10:26:49;;;;;;;2.40;1.83;;;;;;;19.93;60.21;96403.13;5079389;28;20456;-79
2022/05/22 10:29:32;;;;;;;2.47;2.27;;;;;;;20.49;56.99;96385.38;5079994;28;20493;-79
2022/05/22 10:32:10;;;;;;;5.00;1.90;;;;;;;19.78;59.49;96393.56;5079583;28;20490;-78
2022/05/22 10:34:36;;;;;;;2.80;1.90;;;;;;;19.77;60.71;96392.03;5079915;28;20470;-79
2022/05/22 10:37:14;;;;;;;3.27;1.80;;;;;;;18.93;60.93;96367.38;5079130;28;20515;-78
2022/05/22 10:39:41;;;;;;;4.47;2.47;;;;;;;18.94;59.93;96366.22;5079157;28;20424;-79
2022/05/22 10:45:19;;;;;;;6.07;2.40;;;;;;;18.36;63.32;96350.31;5076939;28;20535;-79
2022/05/22 10:47:46;;;;;;;2.80;2.43;;;;;;;18.59;62.05;96332.81;5077693;28;20440;-79
2022/05/22 10:50:20;;;;;;;3.50;2.13;;;;;;;19.30;60.82;96377.78;5078050;28;20429;-80
2022/05/22 10:52:47;;;;;;;2.03;1.80;;;;;;;18.85;59.89;96358.56;5077801;28;20440;-80
2022/05/22 10:55:45;;;;;;;2.40;2.20;;;;;;;18.84;62.89;96377.69;5077598;28;20460;-79
2022/05/22 10:58:28;;;;;;;4.00;2.50;;;;;;;18.53;63.87;96365.69;5095566;28;20447;-79
2022/05/22 11:01:00;;;;;;;4.50;1.93;;;;;;;19.19;62.64;96371.63;5074521;28;20871;-79
2022/05/22 11:03:30;;;;;;;5.80;2.27;;;;;;;19.00;61.93;96291.59;5076965;28;20504;-79
2022/05/22 11:05:59;;;;;;;2.10;2.00;;;;;;;20.29;60.68;96355.47;5077654;28;20503;-79
2022/05/22 11:08:34;;;;;;;4.90;2.27;;;;;;;21.07;57.56;96353.63;5086302;28;20539;-79
2022/05/22 11:11:31;;;;;;;9.30;2.17;;;;;;;21.54;55.16;96338.72;5095276;28;20482;-79
2022/05/22 11:14:15;;;;;;;3.80;1.87;;;;;;;20.83;55.40;96321.13;5077747;28;20472;-79
2022/05/22 11:16:42;;;;;;;3.40;1.90;;;;;;;20.98;56.48;96321.81;5076945;28;20471;-78
2022/05/22 11:19:23;;;;;;;3.27;2.10;;;;;;;20.52;57.46;96347.00;5075050;28;20436;-78
2022/05/22 11:22:12;;;;;;;3.13;1.60;;;;;;;20.19;57.29;96350.16;5074610;28;20621;-78
2022/05/22 11:25:17;;;;;;;2.43;1.90;;;;;;;20.48;57.50;96338.19;5076935;28;20425;-78
2022/05/22 11:27:46;;;;;;;2.97;1.90;;;;;;;20.83;60.05;96344.53;5075566;28;20892;-78
2022/05/22 11:30:28;;;;;;;4.40;2.13;;;;;;;19.74;57.78;96339.88;5076673;28;21278;-78
2022/05/22 11:32:55;;;;;;;4.00;2.50;;;;;;;20.37;58.31;96335.50;5078957;28;20458;-78
2022/05/22 11:35:32;;;;;;;1.67;1.57;;;;;;;19.84;57.53;96302.69;5078897;28;20448;-79
2022/05/22 11:38:39;;;;;;;2.43;1.83;;;;;;;19.13;58.96;96341.00;5064155;28;20476;-78
2022/05/22 11:41:27;;;;;;;4.83;2.20;;;;;;;18.97;59.93;96336.00;5075559;28;20931;-79
2022/05/22 11:44:06;;;;;;;6.10;2.10;;;;;;;19.15;60.69;96328.00;5075760;28;20463;-79
2022/05/22 11:46:45;;;;;;;4.43;2.70;;;;;;;18.95;60.00;96324.88;5075486;28;20460;-79
2022/05/22 11:49:42;;;;;;;4.10;1.90;;;;;;;19.34;60.07;96329.53;5075824;28;20437;-79
2022/05/22 11:55:39;;;;;;;1.67;1.43;;;;;;;20.16;58.43;96330.19;5075959;28;20473;-79
2022/05/22 11:58:15;;;;;;;4.20;2.33;;;;;;;19.55;58.20;96329.56;5075493;28;20490;-78
2022/05/22 12:01:00;;;;;;;2.10;1.90;;;;;;;18.99;58.79;96325.66;5076014;28;20440;-78
2022/05/22 12:04:21;;;;;;;2.60;1.93;;;;;;;19.78;57.96;96316.50;5063890;28;20440;-78
2022/05/22 12:07:19;;;;;;;3.37;2.27;;;;;;;21.06;54.71;96293.72;5017443;28;20452;-78
2022/05/22 12:10:09;;;;;;;2.63;1.73;;;;;;;21.81;54.73;96320.03;5061044;28;20566;-78
2022/05/22 12:12:52;;;;;;;3.20;2.10;;;;;;;22.02;51.99;96317.09;5074687;28;20965;-78
2022/05/22 12:15:38;;;;;;;2.53;2.30;;;;;;;22.85;52.51;96315.03;5073220;28;20845;-79
2022/05/22 12:18:33;;;;;;;3.00;2.20;;;;;;;22.12;51.08;96318.19;5074845;28;20559;-78
2022/05/22 12:21:25;;;;;;;1.80;1.60;;;;;;;21.64;53.24;96310.19;5080015;28;20455;-78
2022/05/22 12:24:21;;;;;;;5.13;1.90;;;;;;;20.73;57.42;96305.06;5095433;28;20506;-78
2022/05/22 12:26:49;;;;;;;2.43;2.23;;;;;;;21.08;55.01;96282.56;5077121;28;20860;-78
2022/05/22 12:29:33;;;;;;;5.00;2.07;;;;;;;20.31;54.68;96304.09;5095291;28;20515;-78
2022/05/22 12:32:14;;;;;;;4.00;1.83;;;;;;;20.04;56.45;96296.50;5094662;28;20551;-78